createdAt,value
2023-01-17T00:00:44.000Z,0
2023-01-17T00:02:00.000Z,0
2023-01-17T00:03:16.863Z,0
2023-01-17T00:04:32.000Z,0
2023-01-17T00:05:48.000Z,0
2023-01-17T00:07:05.000Z,0
2023-01-17T00:08:21.000Z,0
2023-01-17T00:09:37.000Z,0
2023-01-17T00:10:53.000Z,0
2023-01-17T00:12:08.000Z,0
2023-01-17T00:13:24.000Z,0
2023-01-17T00:14:41.206Z,0
2023-01-17T00:15:57.000Z,0
2023-01-17T00:17:13.000Z,0
2023-01-17T00:18:29.000Z,0
2023-01-17T00:19:45.000Z,0
2023-01-17T00:21:01.000Z,0
2023-01-17T00:22:17.000Z,0
2023-01-17T00:23:34.000Z,0
2023-01-17T00:24:50.000Z,0
2023-01-17T00:26:06.000Z,0
2023-01-17T00:27:22.000Z,0
2023-01-17T00:28:37.000Z,0
2023-01-17T00:29:53.000Z,0
2023-01-17T00:31:09.000Z,0
2023-01-17T00:32:26.000Z,0
2023-01-17T00:33:42.429Z,0
2023-01-17T00:34:58.000Z,0
2023-01-17T00:36:13.000Z,0
2023-01-17T00:37:29.000Z,0
2023-01-17T00:38:45.000Z,0
2023-01-17T00:40:01.000Z,0
2023-01-17T00:41:18.000Z,0
2023-01-17T00:42:34.000Z,0
2023-01-17T00:43:50.000Z,0
2023-01-17T00:45:06.000Z,0
2023-01-17T00:46:22.000Z,0
2023-01-17T00:47:38.000Z,0
2023-01-17T00:48:54.000Z,0
2023-01-17T00:50:11.000Z,0
2023-01-17T00:51:27.000Z,0
2023-01-17T00:52:42.000Z,0
2023-01-17T00:53:58.000Z,0
2023-01-17T00:55:14.000Z,0
2023-01-17T00:56:30.000Z,0
2023-01-17T00:57:47.000Z,0
2023-01-17T00:59:03.000Z,0
2023-01-17T01:00:19.000Z,0
2023-01-17T01:01:35.000Z,0
2023-01-17T01:02:51.000Z,0
2023-01-17T01:04:07.000Z,0
2023-01-17T01:05:23.000Z,0
2023-01-17T01:06:40.000Z,0
2023-01-17T01:07:56.000Z,0
2023-01-17T01:09:11.000Z,0
2023-01-17T01:10:27.000Z,0
2023-01-17T01:11:43.000Z,0
2023-01-17T01:12:59.000Z,0
2023-01-17T01:14:15.000Z,0
2023-01-17T01:15:32.000Z,0
2023-01-17T01:16:48.000Z,0
2023-01-17T01:18:04.000Z,0
2023-01-17T01:19:20.783Z,0
2023-01-17T01:20:36.000Z,0
2023-01-17T01:21:52.000Z,0
2023-01-17T01:23:09.222Z,0
2023-01-17T01:24:25.000Z,0
2023-01-17T01:25:40.000Z,0
2023-01-17T01:26:56.000Z,0
2023-01-17T01:28:12.000Z,0
2023-01-17T01:29:28.971Z,0
2023-01-17T01:30:44.000Z,0
2023-01-17T01:32:01.268Z,0
2023-01-17T01:33:17.000Z,0
2023-01-17T01:34:33.000Z,0
2023-01-17T01:35:49.000Z,0
2023-01-17T01:37:05.000Z,0
2023-01-17T01:38:21.000Z,0
2023-01-17T01:39:37.000Z,0
2023-01-17T01:40:54.000Z,0
2023-01-17T01:42:09.456Z,0
2023-01-17T01:43:25.000Z,0
2023-01-17T01:44:41.000Z,0
2023-01-17T01:45:57.000Z,0
2023-01-17T01:47:13.000Z,0
2023-01-17T01:48:30.196Z,0
2023-01-17T01:49:46.000Z,0
2023-01-17T01:51:02.000Z,0
2023-01-17T01:52:18.636Z,0
2023-01-17T01:53:34.782Z,0
2023-01-17T01:54:50.000Z,0
2023-01-17T01:56:06.000Z,0
2023-01-17T01:57:22.000Z,0
2023-01-17T01:58:38.390Z,0
2023-01-17T01:59:54.000Z,0
2023-01-17T02:01:10.000Z,0
2023-01-17T02:02:26.000Z,0
2023-01-17T02:03:42.000Z,0
2023-01-17T02:04:59.125Z,0
2023-01-17T02:06:15.000Z,0
2023-01-17T02:07:31.000Z,0
2023-01-17T02:08:47.000Z,0
2023-01-17T02:10:03.000Z,0
2023-01-17T02:11:19.000Z,0
2023-01-17T02:12:35.000Z,0
2023-01-17T02:13:51.000Z,0
2023-01-17T02:15:07.000Z,0
2023-01-17T02:16:23.000Z,0
2023-01-17T02:17:39.000Z,0
2023-01-17T02:18:55.000Z,0
2023-01-17T02:20:11.000Z,0
2023-01-17T02:21:27.000Z,0
2023-01-17T02:22:43.000Z,0
2023-01-17T02:24:00.000Z,0
2023-01-17T02:25:16.000Z,0
2023-01-17T02:26:32.000Z,0
2023-01-17T02:27:48.000Z,0
2023-01-17T02:29:04.000Z,0
2023-01-17T02:30:20.000Z,0
2023-01-17T02:31:36.243Z,0
2023-01-17T02:32:52.000Z,0
2023-01-17T02:34:08.000Z,0
2023-01-17T02:35:24.000Z,0
2023-01-17T02:36:40.000Z,0
2023-01-17T02:37:56.000Z,0
2023-01-17T02:39:13.124Z,0
2023-01-17T02:40:29.000Z,0
2023-01-17T02:41:45.000Z,0
2023-01-17T02:43:01.000Z,0
2023-01-17T02:44:17.000Z,0
2023-01-17T02:45:33.000Z,0
2023-01-17T02:46:49.000Z,0
2023-01-17T02:48:04.000Z,0
2023-01-17T02:49:21.000Z,0
2023-01-17T02:50:37.000Z,0
2023-01-17T02:51:53.000Z,0
2023-01-17T02:53:09.000Z,0
2023-01-17T02:54:25.000Z,0
2023-01-17T02:55:41.000Z,0
2023-01-17T02:56:57.000Z,0
2023-01-17T02:58:14.000Z,0
2023-01-17T02:59:30.495Z,0
2023-01-17T03:00:46.000Z,0
2023-01-17T03:02:02.000Z,0
2023-01-17T03:03:18.000Z,0
2023-01-17T03:04:34.096Z,0
2023-01-17T03:05:50.000Z,0
2023-01-17T03:07:06.000Z,0
2023-01-17T03:08:22.000Z,0
2023-01-17T03:09:38.000Z,0
2023-01-17T03:10:54.000Z,0
2023-01-17T03:12:10.000Z,0
2023-01-17T03:13:26.000Z,0
2023-01-17T03:14:43.000Z,0
2023-01-17T03:15:59.000Z,0
2023-01-17T03:17:15.000Z,0
2023-01-17T03:18:31.000Z,0
2023-01-17T03:19:47.863Z,0
2023-01-17T03:21:02.000Z,0
2023-01-17T03:22:18.000Z,0
2023-01-17T03:23:35.000Z,0
2023-01-17T03:24:51.000Z,0
2023-01-17T03:26:07.000Z,0
2023-01-17T03:27:23.000Z,0
2023-01-17T03:28:39.000Z,0
2023-01-17T03:29:55.000Z,0
2023-01-17T03:31:11.979Z,0
2023-01-17T03:32:28.000Z,0
2023-01-17T03:33:44.000Z,0
2023-01-17T03:35:00.000Z,0
2023-01-17T03:36:16.000Z,0
2023-01-17T03:37:31.000Z,0
2023-01-17T03:38:47.000Z,0
2023-01-17T03:40:04.000Z,0
2023-01-17T03:41:20.394Z,0
2023-01-17T03:42:36.000Z,0
2023-01-17T03:43:52.692Z,0
2023-01-17T03:45:08.000Z,0
2023-01-17T03:46:24.000Z,0
2023-01-17T03:47:41.144Z,0
2023-01-17T03:48:57.000Z,0
2023-01-17T03:50:13.000Z,0
2023-01-17T03:51:29.000Z,0
2023-01-17T03:52:45.721Z,0
2023-01-17T03:54:00.000Z,0
2023-01-17T03:55:16.000Z,0
2023-01-17T03:56:32.000Z,0
2023-01-17T03:57:49.000Z,0
2023-01-17T03:59:05.000Z,0
2023-01-17T04:00:21.000Z,0
2023-01-17T04:01:37.000Z,0
2023-01-17T04:02:53.000Z,0
2023-01-17T04:04:09.000Z,0
2023-01-17T04:05:25.000Z,0
2023-01-17T04:06:42.000Z,0
2023-01-17T04:07:58.504Z,0
2023-01-17T04:09:14.000Z,0
2023-01-17T04:10:29.000Z,0
2023-01-17T04:11:45.000Z,0
2023-01-17T04:13:01.000Z,0
2023-01-17T04:14:18.000Z,0
2023-01-17T04:15:34.000Z,0
2023-01-17T04:16:50.000Z,0
2023-01-17T04:18:06.000Z,0
2023-01-17T04:19:22.000Z,0
2023-01-17T04:20:38.000Z,0
2023-01-17T04:21:54.000Z,0
2023-01-17T04:23:11.000Z,0
2023-01-17T04:24:27.431Z,0
2023-01-17T04:25:43.000Z,0
2023-01-17T04:26:58.000Z,0
2023-01-17T04:28:14.000Z,0
2023-01-17T04:29:31.142Z,0
2023-01-17T04:30:46.000Z,0
2023-01-17T04:32:03.000Z,0
2023-01-17T04:33:19.000Z,0
2023-01-17T04:34:35.000Z,0
2023-01-17T04:35:51.000Z,0
2023-01-17T04:37:07.000Z,0
2023-01-17T04:38:23.000Z,0
2023-01-17T04:39:39.000Z,0
2023-01-17T04:40:56.000Z,0
2023-01-17T04:42:12.000Z,0
2023-01-17T04:43:27.000Z,0
2023-01-17T04:44:43.818Z,0
2023-01-17T04:45:59.000Z,0
2023-01-17T04:47:15.000Z,0
2023-01-17T04:48:32.000Z,0
2023-01-17T04:49:48.000Z,0
2023-01-17T04:51:03.000Z,0
2023-01-17T04:52:19.000Z,0
2023-01-17T04:53:35.000Z,0
2023-01-17T04:54:51.000Z,0
2023-01-17T04:56:07.000Z,0
2023-01-17T04:57:24.000Z,0
2023-01-17T04:58:40.000Z,0
2023-01-17T04:59:56.000Z,0
2023-01-17T05:01:12.000Z,0
2023-01-17T05:02:28.000Z,0
2023-01-17T05:03:44.000Z,0
2023-01-17T05:05:00.000Z,0
2023-01-17T05:06:17.000Z,0
2023-01-17T05:07:32.000Z,0
2023-01-17T05:08:48.000Z,0
2023-01-17T05:10:04.000Z,0
2023-01-17T05:11:20.000Z,0
2023-01-17T05:12:36.000Z,0
2023-01-17T05:13:53.000Z,0
2023-01-17T05:15:09.000Z,0
2023-01-17T05:16:25.532Z,0
2023-01-17T05:17:41.000Z,0
2023-01-17T05:18:57.000Z,0
2023-01-17T05:20:13.972Z,0
2023-01-17T05:21:29.000Z,0
2023-01-17T05:22:46.280Z,0
2023-01-17T05:24:01.000Z,0
2023-01-17T05:25:17.000Z,0
2023-01-17T05:26:33.000Z,0
2023-01-17T05:27:49.000Z,0
2023-01-17T05:29:06.023Z,0
2023-01-17T05:30:21.000Z,0
2023-01-17T05:31:38.000Z,0
2023-01-17T05:32:54.000Z,0
2023-01-17T05:34:10.000Z,0
2023-01-17T05:35:26.000Z,0
2023-01-17T05:36:42.000Z,0
2023-01-17T05:37:58.000Z,0
2023-01-17T05:39:15.201Z,0
2023-01-17T05:40:30.000Z,0
2023-01-17T05:41:46.000Z,0
2023-01-17T05:43:02.000Z,0
2023-01-17T05:44:18.802Z,0
2023-01-17T05:45:34.000Z,0
2023-01-17T05:46:50.000Z,0
2023-01-17T05:48:07.245Z,0
2023-01-17T05:49:23.000Z,0
2023-01-17T05:50:39.000Z,0
2023-01-17T05:51:55.000Z,0
2023-01-17T05:53:11.000Z,0
2023-01-17T05:54:28.107Z,0
2023-01-17T05:55:43.000Z,0
2023-01-17T05:56:59.000Z,0
2023-01-17T05:58:15.000Z,0
2023-01-17T05:59:31.000Z,0
2023-01-17T06:00:47.000Z,0
2023-01-17T06:02:03.000Z,0
2023-01-17T06:03:19.000Z,0
2023-01-17T06:04:35.000Z,0
2023-01-17T06:05:52.000Z,0
2023-01-17T06:07:08.000Z,0
2023-01-17T06:08:24.000Z,0
2023-01-17T06:09:40.000Z,0
2023-01-17T06:10:56.000Z,0
2023-01-17T06:12:12.000Z,0
2023-01-17T06:13:27.000Z,0
2023-01-17T06:14:44.342Z,0
2023-01-17T06:16:00.000Z,0
2023-01-17T06:17:16.000Z,0
2023-01-17T06:18:32.000Z,0
2023-01-17T06:19:48.000Z,0
2023-01-17T06:21:04.000Z,0
2023-01-17T06:22:20.000Z,0
2023-01-17T06:23:37.000Z,0
2023-01-17T06:24:53.000Z,0
2023-01-17T06:26:09.000Z,0
2023-01-17T06:27:25.000Z,0
2023-01-17T06:28:41.000Z,0
2023-01-17T06:29:56.000Z,0
2023-01-17T06:31:13.000Z,0
2023-01-17T06:32:29.000Z,0
2023-01-17T06:33:45.000Z,0
2023-01-17T06:35:01.692Z,0
2023-01-17T06:36:17.000Z,0
2023-01-17T06:37:33.000Z,0
2023-01-17T06:38:49.000Z,0
2023-01-17T06:40:06.000Z,0
2023-01-17T06:41:22.000Z,0
2023-01-17T06:42:38.000Z,0
2023-01-17T06:43:54.000Z,0
2023-01-17T06:45:10.862Z,0
2023-01-17T06:46:25.000Z,0
2023-01-17T06:47:41.000Z,0
2023-01-17T06:48:58.313Z,0
2023-01-17T06:50:14.452Z,0
2023-01-17T06:51:30.000Z,0
2023-01-17T06:52:46.000Z,0
2023-01-17T06:54:02.000Z,0
2023-01-17T06:55:18.000Z,0
2023-01-17T06:56:34.000Z,0
2023-01-17T06:57:51.331Z,0
2023-01-17T06:59:07.000Z,0
2023-01-17T07:00:23.626Z,0
2023-01-17T07:01:39.000Z,0
2023-01-17T07:02:54.000Z,0
2023-01-17T07:04:10.000Z,0
2023-01-17T07:05:27.240Z,0
2023-01-17T07:06:43.365Z,0
2023-01-17T07:07:59.000Z,0
2023-01-17T07:09:15.000Z,0
2023-01-17T07:10:31.000Z,0
2023-01-17T07:11:47.952Z,0
2023-01-17T07:13:03.000Z,0
2023-01-17T07:14:20.000Z,0
2023-01-17T07:15:36.000Z,4
2023-01-17T07:16:52.000Z,4
2023-01-17T07:18:08.000Z,0
2023-01-17T07:19:23.000Z,0
2023-01-17T07:20:39.000Z,4
2023-01-17T07:21:55.000Z,4
2023-01-17T07:23:12.000Z,4
2023-01-17T07:24:28.000Z,8
2023-01-17T07:25:44.000Z,4
2023-01-17T07:27:00.714Z,8
2023-01-17T07:28:16.000Z,12
2023-01-17T07:29:32.000Z,12
2023-01-17T07:30:48.000Z,12
2023-01-17T07:32:05.000Z,12
2023-01-17T07:33:21.438Z,16
2023-01-17T07:34:37.000Z,16
2023-01-17T07:35:52.000Z,20
2023-01-17T07:37:08.000Z,20
2023-01-17T07:38:24.000Z,24
2023-01-17T07:39:40.000Z,32
2023-01-17T07:40:57.000Z,40
2023-01-17T07:42:13.000Z,48
2023-01-17T07:43:29.000Z,52
2023-01-17T07:44:45.000Z,48
2023-01-17T07:46:01.000Z,56
2023-01-17T07:47:17.000Z,56
2023-01-17T07:48:34.228Z,60
2023-01-17T07:49:50.359Z,60
2023-01-17T07:51:06.000Z,72
2023-01-17T07:52:21.000Z,84
2023-01-17T07:53:37.000Z,88
2023-01-17T07:54:53.000Z,100
2023-01-17T07:56:09.000Z,108
2023-01-17T07:57:26.000Z,116
2023-01-17T07:58:42.000Z,128
2023-01-17T07:59:58.000Z,136
2023-01-17T08:01:14.000Z,148
2023-01-17T08:02:30.000Z,152
2023-01-17T08:03:46.971Z,160
2023-01-17T08:05:02.000Z,164
2023-01-17T08:06:19.000Z,180
2023-01-17T08:07:35.000Z,180
2023-01-17T08:08:50.000Z,168
2023-01-17T08:10:06.000Z,156
2023-01-17T08:11:22.000Z,212
2023-01-17T08:12:38.000Z,244
2023-01-17T08:13:55.151Z,256
2023-01-17T08:15:11.325Z,268
2023-01-17T08:16:27.000Z,284
2023-01-17T08:17:43.000Z,284
2023-01-17T08:18:59.000Z,304
2023-01-17T08:20:15.000Z,316
2023-01-17T08:21:31.000Z,328
2023-01-17T08:22:47.000Z,336
2023-01-17T08:24:04.000Z,340
2023-01-17T08:25:19.000Z,344
2023-01-17T08:26:35.000Z,348
2023-01-17T08:27:51.000Z,352
2023-01-17T08:29:07.915Z,360
2023-01-17T08:30:24.067Z,372
2023-01-17T08:31:39.000Z,376
2023-01-17T08:32:56.000Z,388
2023-01-17T08:34:12.500Z,392
2023-01-17T08:35:28.000Z,388
2023-01-17T08:36:44.000Z,408
2023-01-17T08:38:00.000Z,416
2023-01-17T08:39:16.000Z,452
2023-01-17T08:40:32.000Z,460
2023-01-17T08:41:48.000Z,452
2023-01-17T08:43:04.535Z,456
2023-01-17T08:44:20.000Z,472
2023-01-17T08:45:36.000Z,468
2023-01-17T08:46:52.000Z,464
2023-01-17T08:48:08.000Z,464
2023-01-17T08:49:25.000Z,428
2023-01-17T08:50:41.000Z,424
2023-01-17T08:51:57.000Z,424
2023-01-17T08:53:13.000Z,444
2023-01-17T08:54:29.000Z,432
2023-01-17T08:55:45.000Z,400
2023-01-17T08:57:01.000Z,432
2023-01-17T08:58:17.000Z,508
2023-01-17T08:59:33.000Z,532
2023-01-17T09:00:49.000Z,508
2023-01-17T09:02:05.000Z,428
2023-01-17T09:03:21.000Z,500
2023-01-17T09:04:37.000Z,536
2023-01-17T09:05:52.000Z,548
2023-01-17T09:07:09.000Z,560
2023-01-17T09:08:25.000Z,568
2023-01-17T09:09:41.000Z,580
2023-01-17T09:10:57.000Z,576
2023-01-17T09:12:13.000Z,564
2023-01-17T09:13:29.000Z,536
2023-01-17T09:14:45.000Z,512
2023-01-17T09:16:02.000Z,432
2023-01-17T09:17:18.000Z,256
2023-01-17T09:18:34.000Z,268
2023-01-17T09:19:50.000Z,416
2023-01-17T09:21:06.951Z,400
2023-01-17T09:22:21.000Z,452
2023-01-17T09:23:38.000Z,440
2023-01-17T09:24:54.000Z,600
2023-01-17T09:26:10.546Z,776
2023-01-17T09:27:26.000Z,832
2023-01-17T09:28:42.000Z,840
2023-01-17T09:29:58.984Z,848
2023-01-17T09:31:14.000Z,848
2023-01-17T09:32:31.000Z,868
2023-01-17T09:33:47.000Z,832
2023-01-17T09:35:03.000Z,816
2023-01-17T09:36:19.000Z,828
2023-01-17T09:37:35.000Z,616
2023-01-17T09:38:50.000Z,440
2023-01-17T09:40:06.000Z,316
2023-01-17T09:41:23.000Z,280
2023-01-17T09:42:39.000Z,232
2023-01-17T09:43:55.000Z,228
2023-01-17T09:45:11.000Z,284
2023-01-17T09:46:27.000Z,364
2023-01-17T09:47:43.000Z,624
2023-01-17T09:48:59.000Z,768
2023-01-17T09:50:16.000Z,836
2023-01-17T09:51:32.000Z,880
2023-01-17T09:52:48.000Z,852
2023-01-17T09:54:04.000Z,736
2023-01-17T09:55:19.000Z,648
2023-01-17T09:56:35.000Z,636
2023-01-17T09:57:51.000Z,496
2023-01-17T09:59:08.000Z,532
2023-01-17T10:00:24.521Z,772
2023-01-17T10:01:40.000Z,796
2023-01-17T10:02:56.000Z,824
2023-01-17T10:04:12.000Z,880
2023-01-17T10:05:28.000Z,916
2023-01-17T10:06:45.000Z,992
2023-01-17T10:08:01.000Z,1100
2023-01-17T10:09:17.000Z,1076
2023-01-17T10:10:33.832Z,840
2023-01-17T10:11:48.000Z,536
2023-01-17T10:13:04.000Z,440
2023-01-17T10:14:20.000Z,384
2023-01-17T10:15:37.000Z,412
2023-01-17T10:16:53.000Z,360
2023-01-17T10:18:09.577Z,392
2023-01-17T10:19:25.000Z,528
2023-01-17T10:20:41.000Z,908
2023-01-17T10:21:57.000Z,1204
2023-01-17T10:23:13.000Z,1416
2023-01-17T10:24:30.000Z,1420
2023-01-17T10:25:46.000Z,1464
2023-01-17T10:27:02.000Z,1444
2023-01-17T10:28:17.000Z,1456
2023-01-17T10:29:33.000Z,1332
2023-01-17T10:30:49.000Z,1444
2023-01-17T10:32:05.000Z,1388
2023-01-17T10:33:22.000Z,1304
2023-01-17T10:34:38.000Z,1224
2023-01-17T10:35:54.000Z,1204
2023-01-17T10:37:10.000Z,1152
2023-01-17T10:38:26.000Z,1124
2023-01-17T10:39:42.000Z,1092
2023-01-17T10:40:58.000Z,1176
2023-01-17T10:42:15.000Z,1600
2023-01-17T10:43:31.000Z,1028
2023-01-17T10:44:46.000Z,1196
2023-01-17T10:46:02.000Z,992
2023-01-17T10:47:18.000Z,944
2023-01-17T10:48:34.000Z,948
2023-01-17T10:49:51.000Z,1012
2023-01-17T10:51:07.403Z,1104
2023-01-17T10:52:23.000Z,1212
2023-01-17T10:53:39.000Z,1260
2023-01-17T10:54:55.000Z,1320
2023-01-17T10:56:11.000Z,1356
2023-01-17T10:57:27.000Z,1332
2023-01-17T10:58:44.000Z,1332
2023-01-17T11:00:00.000Z,1588
2023-01-17T11:01:15.596Z,1596
2023-01-17T11:02:31.000Z,1044
2023-01-17T11:03:47.000Z,1004
2023-01-17T11:05:03.000Z,944
2023-01-17T11:06:19.000Z,920
2023-01-17T11:07:36.000Z,952
2023-01-17T11:08:52.000Z,824
2023-01-17T11:10:08.000Z,656
2023-01-17T11:11:24.000Z,588
2023-01-17T11:12:40.000Z,588
2023-01-17T11:13:56.000Z,628
2023-01-17T11:15:12.000Z,564
2023-01-17T11:16:29.000Z,472
2023-01-17T11:17:44.000Z,448
2023-01-17T11:19:00.000Z,456
2023-01-17T11:20:16.000Z,500
2023-01-17T11:21:32.000Z,580
2023-01-17T11:22:48.000Z,664
2023-01-17T11:24:04.000Z,684
2023-01-17T11:25:21.371Z,652
2023-01-17T11:26:37.000Z,592
2023-01-17T11:27:53.000Z,556
2023-01-17T11:29:09.000Z,632
2023-01-17T11:30:25.000Z,968
2023-01-17T11:31:41.000Z,1628
2023-01-17T11:32:58.000Z,2744
2023-01-17T11:34:13.000Z,1020
2023-01-17T11:35:29.000Z,1088
2023-01-17T11:36:45.000Z,2192
2023-01-17T11:38:01.000Z,2220
2023-01-17T11:39:17.000Z,2576
2023-01-17T11:40:33.000Z,2656
2023-01-17T11:41:50.000Z,2244
2023-01-17T11:43:06.000Z,1116
2023-01-17T11:44:22.572Z,1072
2023-01-17T11:45:38.000Z,1204
2023-01-17T11:46:54.000Z,1292
2023-01-17T11:48:10.000Z,1568
2023-01-17T11:49:27.159Z,1392
2023-01-17T11:50:42.000Z,1284
2023-01-17T11:51:58.469Z,1160
2023-01-17T11:53:14.000Z,1152
2023-01-17T11:54:30.000Z,1288
2023-01-17T11:55:46.000Z,1196
2023-01-17T11:57:03.055Z,1108
2023-01-17T11:58:18.000Z,1136
2023-01-17T11:59:35.000Z,1144
2023-01-17T12:00:51.000Z,1052
2023-01-17T12:02:07.000Z,968
2023-01-17T12:03:23.000Z,1028
2023-01-17T12:04:39.941Z,1004
2023-01-17T12:05:55.000Z,1056
2023-01-17T12:07:11.000Z,1044
2023-01-17T12:08:27.000Z,1180
2023-01-17T12:09:43.000Z,1488
2023-01-17T12:10:59.672Z,1472
2023-01-17T12:12:15.000Z,1984
2023-01-17T12:13:31.000Z,1748
2023-01-17T12:14:47.000Z,2016
2023-01-17T12:16:04.000Z,1916
2023-01-17T12:17:20.406Z,1920
2023-01-17T12:18:36.000Z,2268
2023-01-17T12:19:52.000Z,1168
2023-01-17T12:21:08.000Z,2640
2023-01-17T12:22:24.988Z,2988
2023-01-17T12:23:39.000Z,2828
2023-01-17T12:24:56.000Z,2572
2023-01-17T12:26:12.000Z,2284
2023-01-17T12:27:28.000Z,1876
2023-01-17T12:28:44.000Z,2644
2023-01-17T12:30:00.000Z,3460
2023-01-17T12:31:16.000Z,3328
2023-01-17T12:32:32.000Z,2464
2023-01-17T12:33:49.000Z,604
2023-01-17T12:35:05.474Z,532
2023-01-17T12:36:21.000Z,404
2023-01-17T12:37:37.000Z,376
2023-01-17T12:38:53.000Z,372
2023-01-17T12:40:09.061Z,464
2023-01-17T12:41:24.000Z,348
2023-01-17T12:42:41.000Z,328
2023-01-17T12:43:57.000Z,360
2023-01-17T12:45:13.000Z,404
2023-01-17T12:46:29.000Z,448
2023-01-17T12:47:45.939Z,508
2023-01-17T12:49:01.000Z,520
2023-01-17T12:50:17.000Z,496
2023-01-17T12:54:06.667Z,472
2023-01-17T12:55:22.000Z,468
2023-01-17T12:56:37.000Z,476
2023-01-17T12:57:53.000Z,484
2023-01-17T12:59:10.000Z,524
2023-01-17T13:00:26.000Z,564
2023-01-17T13:01:42.000Z,536
2023-01-17T13:02:58.000Z,508
2023-01-17T13:04:14.000Z,488
2023-01-17T13:05:30.000Z,460
2023-01-17T13:06:46.000Z,448
2023-01-17T13:08:03.000Z,448
2023-01-17T13:09:19.000Z,444
2023-01-17T13:10:35.000Z,440
2023-01-17T13:11:51.000Z,456
2023-01-17T13:13:06.000Z,552
2023-01-17T13:14:22.000Z,720
2023-01-17T13:15:39.171Z,696
2023-01-17T13:16:55.000Z,664
2023-01-17T13:18:11.000Z,688
2023-01-17T13:19:27.000Z,728
2023-01-17T13:20:42.000Z,732
2023-01-17T13:21:58.000Z,732
2023-01-17T13:23:14.000Z,724
2023-01-17T13:24:30.000Z,708
2023-01-17T13:25:47.000Z,692
2023-01-17T13:27:03.000Z,480
2023-01-17T13:28:19.000Z,492
2023-01-17T13:29:35.000Z,388
2023-01-17T13:30:51.000Z,392
2023-01-17T13:32:07.000Z,308
2023-01-17T13:33:24.000Z,272
2023-01-17T13:34:40.000Z,172
2023-01-17T13:35:56.000Z,128
2023-01-17T13:37:11.685Z,96
2023-01-17T13:38:27.000Z,124
2023-01-17T13:39:43.000Z,224
2023-01-17T13:40:59.000Z,276
2023-01-17T13:42:16.000Z,460
2023-01-17T13:43:32.000Z,548
2023-01-17T13:44:48.000Z,528
2023-01-17T13:46:04.000Z,552
2023-01-17T13:47:20.854Z,400
2023-01-17T13:48:36.000Z,472
2023-01-17T13:49:52.000Z,344
2023-01-17T13:51:09.000Z,232
2023-01-17T13:52:25.000Z,164
2023-01-17T13:53:40.000Z,160
2023-01-17T13:54:56.000Z,200
2023-01-17T13:56:12.000Z,248
2023-01-17T13:57:28.000Z,260
2023-01-17T13:58:45.187Z,324
2023-01-17T14:00:01.000Z,332
2023-01-17T14:01:17.000Z,340
2023-01-17T14:02:33.000Z,380
2023-01-17T14:03:49.000Z,592
2023-01-17T14:05:05.000Z,816
2023-01-17T14:06:21.000Z,876
2023-01-17T14:07:38.209Z,800
2023-01-17T14:08:54.000Z,772
2023-01-17T14:10:09.000Z,648
2023-01-17T14:11:25.000Z,668
2023-01-17T14:12:41.000Z,584
2023-01-17T14:13:57.000Z,540
2023-01-17T14:15:13.000Z,372
2023-01-17T14:16:30.000Z,352
2023-01-17T14:17:46.000Z,436
2023-01-17T14:19:02.000Z,384
2023-01-17T14:20:18.000Z,396
2023-01-17T14:21:34.000Z,376
2023-01-17T14:22:50.000Z,356
2023-01-17T14:24:06.000Z,288
2023-01-17T14:25:23.000Z,276
2023-01-17T14:26:38.000Z,280
2023-01-17T14:27:54.000Z,292
2023-01-17T14:29:10.000Z,304
2023-01-17T14:30:26.000Z,304
2023-01-17T14:31:42.000Z,292
2023-01-17T14:32:58.000Z,272
2023-01-17T14:34:15.290Z,260
2023-01-17T14:35:31.000Z,248
2023-01-17T14:36:47.000Z,248
2023-01-17T14:38:03.000Z,252
2023-01-17T14:39:19.878Z,244
2023-01-17T14:40:35.000Z,240
2023-01-17T14:41:51.000Z,216
2023-01-17T14:43:07.000Z,204
2023-01-17T14:44:23.000Z,196
2023-01-17T14:45:39.000Z,192
2023-01-17T14:46:55.000Z,180
2023-01-17T14:48:11.000Z,172
2023-01-17T14:49:27.000Z,168
2023-01-17T14:50:43.000Z,160
2023-01-17T14:52:00.000Z,152
2023-01-17T14:53:16.000Z,144
2023-01-17T14:54:32.000Z,136
2023-01-17T14:55:48.000Z,140
2023-01-17T14:57:04.000Z,132
2023-01-17T14:58:20.000Z,108
2023-01-17T14:59:36.000Z,88
2023-01-17T15:00:52.000Z,96
2023-01-17T15:02:08.530Z,88
2023-01-17T15:03:24.000Z,76
2023-01-17T15:04:40.000Z,88
2023-01-17T15:05:56.000Z,76
2023-01-17T15:07:13.133Z,88
2023-01-17T15:08:29.000Z,76
2023-01-17T15:09:45.406Z,64
2023-01-17T15:11:01.000Z,56
2023-01-17T15:12:17.000Z,52
2023-01-17T15:13:33.000Z,32
2023-01-17T15:14:49.000Z,20
2023-01-17T15:16:04.000Z,24
2023-01-17T15:17:21.000Z,16
2023-01-17T15:18:37.449Z,36
2023-01-17T15:19:53.605Z,36
2023-01-17T15:21:09.000Z,36
2023-01-17T15:22:25.000Z,32
2023-01-17T15:23:42.027Z,32
2023-01-17T15:24:57.000Z,28
2023-01-17T15:26:14.000Z,24
2023-01-17T15:27:30.465Z,32
2023-01-17T15:28:46.000Z,36
2023-01-17T15:30:02.000Z,28
2023-01-17T15:31:18.000Z,28
2023-01-17T15:32:33.000Z,28
2023-01-17T15:33:49.000Z,24
2023-01-17T15:35:06.000Z,20
2023-01-17T15:36:22.000Z,20
2023-01-17T15:37:38.655Z,16
2023-01-17T15:38:54.000Z,16
2023-01-17T15:40:10.000Z,12
2023-01-17T15:41:27.094Z,12
2023-01-17T15:42:43.000Z,12
2023-01-17T15:43:59.000Z,8
2023-01-17T15:45:15.000Z,8
2023-01-17T15:46:31.000Z,8
2023-01-17T15:47:47.000Z,4
2023-01-17T15:49:02.000Z,4
2023-01-17T15:50:19.148Z,4
2023-01-17T15:51:35.000Z,4
2023-01-17T15:52:51.000Z,4
2023-01-17T15:54:07.000Z,0
2023-01-17T15:55:23.000Z,4
2023-01-17T15:56:39.000Z,0
2023-01-17T15:57:55.000Z,0
2023-01-17T15:59:11.000Z,0
2023-01-17T16:00:28.000Z,0
2023-01-17T16:01:44.000Z,0
2023-01-17T16:03:00.000Z,0
2023-01-17T16:04:16.000Z,0
2023-01-17T16:05:31.000Z,0
2023-01-17T16:06:47.000Z,0
2023-01-17T16:08:03.000Z,0
2023-01-17T16:09:20.000Z,0
2023-01-17T16:10:36.513Z,0
2023-01-17T16:11:52.000Z,0
2023-01-17T16:13:08.000Z,0
2023-01-17T16:14:24.000Z,0
2023-01-17T16:15:40.000Z,0
2023-01-17T16:16:57.000Z,0
2023-01-17T16:18:13.000Z,0
2023-01-17T16:19:29.000Z,0
2023-01-17T16:20:45.000Z,0
2023-01-17T16:22:00.000Z,0
2023-01-17T16:23:17.000Z,0
2023-01-17T16:24:32.000Z,0
2023-01-17T16:25:49.000Z,0
2023-01-17T16:27:05.000Z,0
2023-01-17T16:28:21.000Z,0
2023-01-17T16:29:37.000Z,0
2023-01-17T16:30:53.000Z,0
2023-01-17T16:32:09.000Z,0
2023-01-17T16:33:25.000Z,0
2023-01-17T16:34:42.000Z,0
2023-01-17T16:35:58.000Z,0
2023-01-17T16:37:14.000Z,0
2023-01-17T16:38:29.000Z,0
2023-01-17T16:39:45.000Z,0
2023-01-17T16:41:01.000Z,0
2023-01-17T16:42:17.000Z,0
2023-01-17T16:43:34.369Z,0
2023-01-17T16:44:50.000Z,0
2023-01-17T16:46:06.000Z,0
2023-01-17T16:47:22.813Z,0
2023-01-17T16:48:38.000Z,0
2023-01-17T16:49:54.000Z,0
2023-01-17T16:51:11.250Z,0
2023-01-17T16:52:27.000Z,0
2023-01-17T16:53:43.000Z,0
2023-01-17T16:54:58.000Z,0
2023-01-17T16:56:14.000Z,0
2023-01-17T16:57:30.000Z,0
2023-01-17T16:58:46.000Z,0
2023-01-17T17:00:03.299Z,0
2023-01-17T17:01:19.000Z,0
2023-01-17T17:02:35.000Z,0
2023-01-17T17:03:51.000Z,0
2023-01-17T17:05:07.000Z,0
2023-01-17T17:06:24.036Z,0
2023-01-17T17:07:39.000Z,0
2023-01-17T17:08:56.000Z,0
2023-01-17T17:10:12.000Z,0
2023-01-17T17:11:27.000Z,0
2023-01-17T17:12:43.000Z,0
2023-01-17T17:13:59.000Z,0
2023-01-17T17:15:15.000Z,0
2023-01-17T17:16:32.000Z,0
2023-01-17T17:17:48.000Z,0
2023-01-17T17:19:04.000Z,0
2023-01-17T17:20:20.000Z,0
2023-01-17T17:21:36.000Z,0
2023-01-17T17:22:52.000Z,0
2023-01-17T17:24:08.000Z,0
2023-01-17T17:25:25.255Z,0
2023-01-17T17:26:41.000Z,0
2023-01-17T17:27:56.000Z,0
2023-01-17T17:29:12.000Z,0
2023-01-17T17:30:28.858Z,0
2023-01-17T17:31:44.000Z,0
2023-01-17T17:33:00.000Z,0
2023-01-17T17:34:17.000Z,0
2023-01-17T17:35:32.000Z,0
2023-01-17T17:36:48.000Z,0
2023-01-17T17:38:04.000Z,0
2023-01-17T17:39:20.000Z,0
2023-01-17T17:40:37.060Z,0
2023-01-17T17:41:52.000Z,0
2023-01-17T17:43:09.000Z,0
2023-01-17T17:44:25.500Z,0
2023-01-17T17:45:41.000Z,0
2023-01-17T17:46:57.000Z,0
2023-01-17T17:48:13.940Z,0
2023-01-17T17:49:29.000Z,0
2023-01-17T17:50:46.000Z,0
2023-01-17T17:52:01.000Z,0
2023-01-17T17:53:17.000Z,0
2023-01-17T17:54:33.000Z,0
2023-01-17T17:55:49.843Z,0
2023-01-17T17:57:05.000Z,0
2023-01-17T17:58:21.000Z,0
2023-01-17T17:59:38.000Z,0
2023-01-17T18:00:54.427Z,0
2023-01-17T18:02:10.000Z,0
2023-01-17T18:03:26.000Z,0
2023-01-17T18:04:42.000Z,0
2023-01-17T18:05:58.000Z,0
2023-01-17T18:07:14.000Z,0
2023-01-17T18:08:30.000Z,0
2023-01-17T18:09:46.000Z,0